Time;durP1;ratioP1;P1;durP2;ratioP2;P2;SDS_P1;SDS_P2;PMS_P1;PMS_P2;Temp;Humidity;BMP_temperature;BMP_pressure;BME280_temperature;BME280_humidity;BME280_pressure;Samples;Min_cycle;Max_cycle;Signal;HPM_P1;HPM_P2
2022/06/09 00:00:52;;;;;;;;;4.00;4.00;;;;;-144.62;100.00;60556.56;5086629;27;46172;-67
2022/06/09 00:03:24;;;;;;;;;2.33;2.33;;;;;-144.62;100.00;60556.56;5072672;28;45353;-67
2022/06/09 00:05:50;;;;;;;;;6.00;4.00;;;;;-144.62;100.00;60556.56;5085383;27;45732;-67
2022/06/09 00:08:18;;;;;;;;;4.00;3.00;;;;;-144.62;100.00;60556.56;5091966;27;45334;-67
2022/06/09 00:10:52;;;;;;;;;6.00;3.00;;;;;-144.62;100.00;60556.56;5087175;27;46591;-67
2022/06/09 00:13:18;;;;;;;;;5.00;3.00;;;;;-144.62;100.00;60556.56;5078285;28;45428;-67
2022/06/09 00:15:43;;;;;;;;;3.00;2.00;;;;;-144.62;100.00;60556.56;5100506;27;45510;-67
2022/06/09 00:18:08;;;;;;;;;6.67;2.67;;;;;-144.62;100.00;60556.56;5088311;27;45591;-67
2022/06/09 00:20:34;;;;;;;;;6.00;5.00;;;;;-144.62;100.00;60556.56;5068233;27;46847;-67
2022/06/09 00:22:59;;;;;;;;;5.67;4.00;;;;;-144.62;100.00;60556.56;5076450;28;45318;-67
2022/06/09 00:25:25;;;;;;;;;3.67;3.00;;;;;-144.62;100.00;60556.56;5085950;27;45232;-67
2022/06/09 00:27:50;;;;;;;;;4.00;2.33;;;;;-144.62;100.00;60556.56;5090441;27;45299;-67
2022/06/09 00:30:17;;;;;;;;;7.00;6.67;;;;;-144.62;100.00;60556.56;5099839;27;45436;-67
2022/06/09 00:32:43;;;;;;;;;8.00;5.00;;;;;-144.62;100.00;60556.56;5087534;27;45378;-67
2022/06/09 00:35:09;;;;;;;;;4.67;2.33;;;;;-144.62;100.00;60556.56;5085911;27;45326;-67
2022/06/09 00:37:35;;;;;;;;;6.00;5.00;;;;;-144.62;100.00;60556.56;5088200;27;45462;-67
2022/06/09 00:40:00;;;;;;;;;2.33;2.33;;;;;-144.62;100.00;60556.56;5085565;27;45405;-67
2022/06/09 00:42:26;;;;;;;;;4.67;2.67;;;;;-144.62;100.00;60556.56;5087516;27;45420;-67
2022/06/09 00:44:51;;;;;;;;;3.00;2.00;;;;;-144.62;100.00;60556.56;5067700;28;45533;-66
2022/06/09 00:47:19;;;;;;;;;4.33;2.00;;;;;-144.62;100.00;60556.56;5086217;27;45476;-67
2022/06/09 00:49:58;;;;;;;;;7.33;4.00;;;;;-144.62;100.00;60556.56;5085474;27;45313;-66
2022/06/09 00:52:26;;;;;;;;;2.00;2.00;;;;;-144.62;100.00;60556.56;5073326;27;45371;-66
2022/06/09 00:55:01;;;;;;;;;3.33;3.33;;;;;-144.62;100.00;60556.56;5085636;27;45482;-66
2022/06/09 00:57:57;;;;;;;;;3.00;3.00;;;;;-144.62;100.00;60556.56;5089137;27;46021;-67
2022/06/09 01:00:28;;;;;;;;;5.67;4.00;;;;;-144.62;100.00;60556.56;5050671;27;47113;-66
2022/06/09 01:02:56;;;;;;;;;2.00;2.00;;;;;-144.62;100.00;60556.56;5093200;27;45518;-66
2022/06/09 01:05:25;;;;;;;;;1.00;1.00;;;;;-144.62;100.00;60556.56;5084585;27;45416;-67
2022/06/09 01:07:54;;;;;;;;;1.33;1.33;;;;;-144.62;100.00;60556.56;5092006;27;45543;-66
2022/06/09 01:10:20;;;;;;;;;2.67;2.67;;;;;-144.62;100.00;60556.56;5066922;28;48028;-66
2022/06/09 01:12:47;;;;;;;;;3.00;3.00;;;;;-144.62;100.00;60556.56;5092202;27;45449;-67
2022/06/09 01:15:22;;;;;;;;;3.00;2.33;;;;;-144.62;100.00;60556.56;5096146;27;45300;-66
2022/06/09 01:17:47;;;;;;;;;3.67;3.67;;;;;-144.62;100.00;60556.56;5090733;27;45481;-66
2022/06/09 01:20:36;;;;;;;;;4.00;2.00;;;;;-144.62;100.00;60556.56;5084809;27;45345;-66
2022/06/09 01:23:29;;;;;;;;;2.00;2.00;;;;;-144.62;100.00;60556.56;5068752;28;45416;-67
2022/06/09 01:26:33;;;;;;;;;4.33;3.00;;;;;-144.62;100.00;60556.56;5085306;27;45540;-66
2022/06/09 01:29:01;;;;;;;;;4.00;4.00;;;;;-144.62;100.00;60556.56;5093315;27;45680;-67
2022/06/09 01:31:38;;;;;;;;;4.00;2.33;;;;;-144.62;100.00;60556.56;5086068;27;45436;-66
2022/06/09 01:34:18;;;;;;;;;4.33;2.67;;;;;-144.62;100.00;60556.56;5085445;27;45313;-68
2022/06/09 01:37:01;;;;;;;;;4.67;1.67;;;;;-144.62;100.00;60556.56;5086802;27;45176;-67
2022/06/09 01:39:41;;;;;;;;;9.33;5.00;;;;;-144.62;100.00;60556.56;5085338;27;45314;-66
2022/06/09 01:42:26;;;;;;;;;5.33;5.00;;;;;-144.62;100.00;60556.56;5086731;27;45537;-66
2022/06/09 01:44:56;;;;;;;;;3.00;3.00;;;;;-144.62;100.00;60556.56;5084353;27;45417;-66
2022/06/09 01:47:27;;;;;;;;;3.00;3.00;;;;;-144.62;100.00;60556.56;5086902;27;45308;-66
2022/06/09 01:49:57;;;;;;;;;3.00;2.00;;;;;-144.62;100.00;60556.56;5084898;27;45390;-66
2022/06/09 01:52:25;;;;;;;;;3.67;2.33;;;;;-144.62;100.00;60556.56;5087884;27;45232;-66
2022/06/09 01:54:53;;;;;;;;;5.33;4.33;;;;;-144.62;100.00;60556.56;5099782;27;45758;-67
2022/06/09 01:57:26;;;;;;;;;3.00;3.00;;;;;-144.62;100.00;60556.56;5076438;27;45386;-66
2022/06/09 01:59:58;;;;;;;;;3.00;2.33;;;;;-144.62;100.00;60556.56;5096988;27;45449;-67
2022/06/09 02:02:30;;;;;;;;;4.00;3.00;;;;;-144.62;100.00;60556.56;5090584;27;46491;-67
2022/06/09 02:05:04;;;;;;;;;7.00;3.67;;;;;-144.62;100.00;60556.56;5085201;27;45318;-67
2022/06/09 02:07:33;;;;;;;;;5.00;2.00;;;;;-144.62;100.00;60556.56;5088996;27;45544;-67
2022/06/09 02:10:18;;;;;;;;;2.67;2.67;;;;;-144.62;100.00;60556.56;5066467;28;45336;-66
2022/06/09 02:12:44;;;;;;;;;6.00;4.00;;;;;-144.62;100.00;60556.56;5088522;27;46046;-67
2022/06/09 02:15:16;;;;;;;;;6.00;4.33;;;;;-144.62;100.00;60556.56;5084198;27;45250;-67
2022/06/09 02:17:44;;;;;;;;;4.00;3.00;;;;;-144.62;100.00;60556.56;5089438;27;45455;-67
2022/06/09 02:20:10;;;;;;;;;6.00;4.00;;;;;-144.62;100.00;60556.56;5084411;27;45620;-67
2022/06/09 02:22:36;;;;;;;;;6.33;3.67;;;;;-144.62;100.00;60556.56;5089930;27;45344;-67
2022/06/09 02:25:01;;;;;;;;;5.00;4.67;;;;;-144.62;100.00;60556.56;5084085;28;45353;-67
2022/06/09 02:27:26;;;;;;;;;4.67;3.33;;;;;-144.62;100.00;60556.56;5090057;27;45650;-67
2022/06/09 02:29:52;;;;;;;;;3.00;2.33;;;;;-144.62;100.00;60556.56;5086158;27;45413;-67
2022/06/09 02:32:17;;;;;;;;;3.33;2.00;;;;;-144.62;100.00;60556.56;5087855;27;48186;-67
2022/06/09 02:34:42;;;;;;;;;4.67;3.00;;;;;-144.62;100.00;60556.56;5083702;27;45306;-67
2022/06/09 02:37:08;;;;;;;;;4.33;2.00;;;;;-144.62;100.00;60556.56;5083905;27;45461;-67
2022/06/09 02:39:33;;;;;;;;;8.33;3.33;;;;;-144.62;100.00;60556.56;5084160;27;45429;-66
2022/06/09 02:41:58;;;;;;;;;5.67;5.00;;;;;-144.62;100.00;60556.56;5084500;27;46449;-69
2022/06/09 02:44:24;;;;;;;;;5.00;4.00;;;;;-144.62;100.00;60556.56;5064843;27;45272;-67
2022/06/09 02:46:49;;;;;;;;;4.00;3.00;;;;;-144.62;100.00;60556.56;5067734;28;45562;-67
2022/06/09 02:49:15;;;;;;;;;3.67;2.00;;;;;-144.62;100.00;60556.56;5072381;27;45456;-67
2022/06/09 02:51:41;;;;;;;;;5.33;3.00;;;;;-144.62;100.00;60556.56;5079685;27;47691;-67
2022/06/09 02:54:10;;;;;;;;;6.00;3.00;;;;;-144.62;100.00;60556.56;5085498;27;45302;-67
2022/06/09 02:56:36;;;;;;;;;0.00;0.00;;;;;-144.62;100.00;60556.56;5083667;27;45334;-67
2022/06/09 02:59:01;;;;;;;;;5.00;3.33;;;;;-144.62;100.00;60556.56;5083912;27;45396;-67
2022/06/09 03:01:28;;;;;;;;;4.33;3.33;;;;;-144.62;100.00;60556.56;5085750;27;46191;-67
2022/06/09 03:03:54;;;;;;;;;5.33;2.67;;;;;-144.62;100.00;60556.56;5088966;27;45429;-68
2022/06/09 03:06:20;;;;;;;;;4.67;3.33;;;;;-144.62;100.00;60556.56;5067009;27;45428;-67
2022/06/09 03:08:46;;;;;;;;;3.00;1.00;;;;;-144.62;100.00;60556.56;5101287;27;45254;-66
2022/06/09 03:11:12;;;;;;;;;4.00;4.00;;;;;-144.62;100.00;60556.56;5096586;27;46198;-67
2022/06/09 03:13:39;;;;;;;;;6.67;2.67;;;;;-144.62;100.00;60556.56;5076373;27;45352;-67
2022/06/09 03:16:05;;;;;;;;;4.33;2.33;;;;;-144.62;100.00;60556.56;5095223;27;45465;-67
2022/06/09 03:18:30;;;;;;;;;3.00;3.00;;;;;-144.62;100.00;60556.56;5091265;27;45180;-67
2022/06/09 03:20:56;;;;;;;;;3.00;3.00;;;;;-144.62;100.00;60556.56;5083517;27;46335;-67
2022/06/09 03:23:21;;;;;;;;;3.00;3.00;;;;;-144.62;100.00;60556.56;5082783;27;45230;-67
2022/06/09 03:25:48;;;;;;;;;4.67;3.67;;;;;-144.62;100.00;60556.56;5083345;27;45489;-67
2022/06/09 03:28:13;;;;;;;;;6.00;3.00;;;;;-144.62;100.00;60556.56;5082876;27;45336;-67
2022/06/09 03:30:39;;;;;;;;;7.33;3.00;;;;;-144.62;100.00;60556.56;5082785;27;45749;-67
2022/06/09 03:33:04;;;;;;;;;6.00;3.33;;;;;-144.62;100.00;60556.56;5067907;27;45742;-68
2022/06/09 03:35:30;;;;;;;;;8.67;4.00;;;;;-144.62;100.00;60556.56;5083296;27;45287;-69
2022/06/09 03:37:56;;;;;;;;;4.33;4.33;;;;;-144.62;100.00;60556.56;5085087;27;45450;-67
2022/06/09 03:40:23;;;;;;;;;4.67;3.33;;;;;-144.62;100.00;60556.56;5088302;27;45574;-68
2022/06/09 03:42:49;;;;;;;;;3.00;3.00;;;;;-144.62;100.00;60556.56;5085760;27;45620;-67
2022/06/09 03:45:15;;;;;;;;;3.00;2.50;;;;;-144.62;100.00;60556.56;5083640;28;45382;-67
2022/06/09 03:47:40;;;;;;;;;8.00;5.33;;;;;-144.62;100.00;60556.56;5085290;27;45271;-68
2022/06/09 03:50:08;;;;;;;;;2.00;2.00;;;;;-144.62;100.00;60556.56;5099517;27;45805;-68
2022/06/09 03:52:34;;;;;;;;;4.00;4.00;;;;;-144.62;100.00;60556.56;5088909;27;45477;-67
2022/06/09 03:54:59;;;;;;;;;8.00;6.67;;;;;-144.62;100.00;60556.56;5084947;27;45746;-67
2022/06/09 03:57:25;;;;;;;;;5.67;4.00;;;;;-144.62;100.00;60556.56;5073860;28;45390;-67
2022/06/09 03:59:51;;;;;;;;;4.67;4.00;;;;;-144.62;100.00;60556.56;5082545;27;46298;-67
2022/06/09 04:02:16;;;;;;;;;4.33;3.00;;;;;-144.62;100.00;60556.56;5085428;27;45419;-67
2022/06/09 04:04:41;;;;;;;;;4.00;4.00;;;;;-144.62;100.00;60556.56;5067839;28;45419;-67
2022/06/09 04:07:07;;;;;;;;;7.67;5.00;;;;;-144.62;100.00;60556.56;5090457;27;45523;-67
2022/06/09 04:09:33;;;;;;;;;6.00;6.00;;;;;-144.62;100.00;60556.56;5082350;27;45310;-67
2022/06/09 04:11:58;;;;;;;;;5.00;3.00;;;;;-144.62;100.00;60556.56;5085567;27;45463;-67
2022/06/09 04:14:24;;;;;;;;;7.33;5.33;;;;;-144.62;100.00;60556.56;5082788;28;46065;-67
2022/06/09 04:16:49;;;;;;;;;6.67;3.00;;;;;-144.62;100.00;60556.56;5086194;27;45313;-69
2022/06/09 04:19:17;;;;;;;;;3.00;3.00;;;;;-144.62;100.00;60556.56;5083971;27;45601;-69
2022/06/09 04:21:44;;;;;;;;;5.33;3.33;;;;;-144.62;100.00;60556.56;5077810;28;45297;-68
2022/06/09 04:24:10;;;;;;;;;7.67;5.00;;;;;-144.62;100.00;60556.56;5087678;27;45516;-69
2022/06/09 04:26:38;;;;;;;;;4.00;4.00;;;;;-144.62;100.00;60556.56;5086479;27;46072;-69
2022/06/09 04:29:05;;;;;;;;;7.67;4.33;;;;;-144.62;100.00;60556.56;5074574;27;46024;-69
2022/06/09 04:31:31;;;;;;;;;8.33;4.00;;;;;-144.62;100.00;60556.56;5083103;27;45381;-69
2022/06/09 04:33:57;;;;;;;;;13.00;7.67;;;;;-144.62;100.00;60556.56;5074276;27;45548;-67
2022/06/09 04:36:22;;;;;;;;;5.00;5.00;;;;;-144.62;100.00;60556.56;5083921;27;45642;-69
2022/06/09 04:38:48;;;;;;;;;4.00;3.00;;;;;-144.62;100.00;60556.56;5083607;27;45429;-67
2022/06/09 04:41:15;;;;;;;;;4.33;3.67;;;;;-144.62;100.00;60556.56;5083377;27;45322;-67
2022/06/09 04:43:44;;;;;;;;;8.33;3.00;;;;;-144.62;100.00;60556.56;5085231;27;45389;-67
2022/06/09 04:46:12;;;;;;;;;8.00;5.00;;;;;-144.62;100.00;60556.56;5068044;27;45763;-68
2022/06/09 04:48:37;;;;;;;;;5.33;4.00;;;;;-144.62;100.00;60556.56;5087210;27;45437;-70
2022/06/09 04:51:07;;;;;;;;;4.67;3.67;;;;;-144.62;100.00;60556.56;5093724;27;45414;-67
2022/06/09 04:53:33;;;;;;;;;3.00;3.00;;;;;-144.62;100.00;60556.56;5086630;27;45341;-70
2022/06/09 04:55:58;;;;;;;;;6.00;4.00;;;;;-144.62;100.00;60556.56;5098556;27;45481;-67
2022/06/09 04:58:24;;;;;;;;;6.00;5.00;;;;;-144.62;100.00;60556.56;5088844;27;46609;-69
2022/06/09 05:00:50;;;;;;;;;5.00;3.00;;;;;-144.62;100.00;60556.56;5084997;27;45497;-68
2022/06/09 05:03:15;;;;;;;;;5.33;5.33;;;;;-144.62;100.00;60556.56;5092892;27;45500;-68
2022/06/09 05:05:45;;;;;;;;;8.00;6.67;;;;;-144.62;100.00;60556.56;5066394;27;45695;-67
2022/06/09 05:08:11;;;;;;;;;5.00;5.00;;;;;-144.62;100.00;60556.56;5083839;27;45432;-70
2022/06/09 05:10:39;;;;;;;;;7.67;5.00;;;;;-144.62;100.00;60556.56;5083934;27;45286;-68
2022/06/09 05:13:06;;;;;;;;;8.00;6.00;;;;;-144.62;100.00;60556.56;5085096;27;45164;-67
2022/06/09 05:15:34;;;;;;;;;6.00;5.33;;;;;-144.62;100.00;60556.56;5084559;27;45615;-69
2022/06/09 05:18:00;;;;;;;;;5.67;5.67;;;;;-144.62;100.00;60556.56;5096924;27;45590;-67
2022/06/09 05:20:26;;;;;;;;;7.67;7.33;;;;;-144.62;100.00;60556.56;5098507;27;45223;-68
2022/06/09 05:22:52;;;;;;;;;5.67;5.33;;;;;-144.62;100.00;60556.56;5090638;27;45570;-68
2022/06/09 05:25:18;;;;;;;;;4.67;4.67;;;;;-144.62;100.00;60556.56;5089239;27;45625;-68
2022/06/09 05:27:44;;;;;;;;;5.00;4.67;;;;;-144.62;100.00;60556.56;5089695;27;45452;-69
2022/06/09 05:30:13;;;;;;;;;6.00;5.00;;;;;-144.62;100.00;60556.56;5084064;27;45385;-67
2022/06/09 05:32:39;;;;;;;;;5.00;5.00;;;;;-144.62;100.00;60556.56;5085884;27;45325;-67
2022/06/09 05:35:06;;;;;;;;;5.00;5.00;;;;;-144.62;100.00;60556.56;5097838;27;45429;-67
2022/06/09 05:44:50;;;;;;;;;5.33;5.33;;;;;-144.62;100.00;60556.56;5085457;27;45571;-69
2022/06/09 05:45:46;;;;;;;;;9.00;7.67;;;;;-144.62;100.00;60556.56;5084025;27;45313;-68
2022/06/09 05:48:12;;;;;;;;;8.67;5.00;;;;;-144.62;100.00;60556.56;5084849;27;46173;-68
2022/06/09 05:50:37;;;;;;;;;10.00;6.00;;;;;-144.62;100.00;60556.56;5066461;27;45469;-67
2022/06/09 05:53:03;;;;;;;;;5.00;4.00;;;;;-144.62;100.00;60556.56;5087904;27;45266;-67
2022/06/09 05:55:28;;;;;;;;;8.33;5.00;;;;;-144.62;100.00;60556.56;5083533;27;45373;-68
2022/06/09 05:57:54;;;;;;;;;4.33;4.00;;;;;-144.62;100.00;60556.56;5069148;28;46986;-68
2022/06/09 06:00:19;;;;;;;;;5.00;5.00;;;;;-144.62;100.00;60556.56;5063866;28;45335;-67
2022/06/09 06:02:44;;;;;;;;;4.33;4.33;;;;;-144.62;100.00;60556.56;5075650;28;45534;-67
2022/06/09 06:06:33;;;;;;;;;5.33;4.33;;;;;-144.62;100.00;60556.56;5092137;27;44996;-67
2022/06/09 06:07:55;;;;;;;;;7.00;7.00;;;;;-144.62;100.00;60556.56;5084192;27;45955;-68
2022/06/09 06:10:20;;;;;;;;;5.00;5.00;;;;;-144.62;100.00;60556.56;5096045;27;45394;-69
2022/06/09 06:12:46;;;;;;;;;8.00;4.00;;;;;-144.62;100.00;60556.56;5086096;27;45293;-69
2022/06/09 06:15:11;;;;;;;;;6.67;4.00;;;;;-144.62;100.00;60556.56;5065016;28;45205;-68
2022/06/09 06:17:37;;;;;;;;;9.33;6.67;;;;;-144.62;100.00;60556.56;5081819;27;45397;-69
2022/06/09 06:20:02;;;;;;;;;11.67;6.00;;;;;-144.62;100.00;60556.56;5065582;28;45515;-70
2022/06/09 06:22:28;;;;;;;;;7.33;6.33;;;;;-144.62;100.00;60556.56;5066069;28;45476;-67
2022/06/09 06:24:53;;;;;;;;;13.33;5.33;;;;;-144.62;100.00;60556.56;5062520;28;45468;-68
2022/06/09 06:27:19;;;;;;;;;4.33;4.33;;;;;-144.62;100.00;60556.56;5075268;27;46951;-69
2022/06/09 06:29:44;;;;;;;;;8.67;7.33;;;;;-144.62;100.00;60556.56;5062460;28;45442;-68
2022/06/09 06:32:10;;;;;;;;;5.00;5.00;;;;;-144.62;100.00;60556.56;5063777;28;45487;-70
2022/06/09 06:34:35;;;;;;;;;5.00;5.00;;;;;-144.62;100.00;60556.56;5062399;28;45356;-69
2022/06/09 06:37:01;;;;;;;;;8.00;5.00;;;;;-144.62;100.00;60556.56;5063387;28;46532;-68
2022/06/09 06:39:26;;;;;;;;;11.00;6.67;;;;;-144.62;100.00;60556.56;5072119;28;45418;-70
2022/06/09 06:41:51;;;;;;;;;9.00;5.00;;;;;-144.62;100.00;60556.56;5067086;27;45349;-69
2022/06/09 06:44:17;;;;;;;;;12.00;7.67;;;;;-144.62;100.00;60556.56;5062082;28;45374;-69
2022/06/09 06:46:42;;;;;;;;;6.00;3.33;;;;;-144.62;100.00;60556.56;5062022;28;46545;-68
2022/06/09 06:49:08;;;;;;;;;7.67;7.00;;;;;-144.62;100.00;60556.56;5061122;28;45395;-69
2022/06/09 06:51:35;;;;;;;;;9.33;7.67;;;;;-144.62;100.00;60556.56;5064270;28;45309;-68
2022/06/09 06:54:04;;;;;;;;;11.33;6.33;;;;;-144.62;100.00;60556.56;5063249;28;45428;-70
2022/06/09 06:56:30;;;;;;;;;11.33;8.00;;;;;-144.62;100.00;60556.56;5066028;28;47371;-69
2022/06/09 06:58:55;;;;;;;;;11.67;11.00;;;;;-144.62;100.00;60556.56;5062518;28;45402;-69
2022/06/09 07:01:20;;;;;;;;;6.67;6.00;;;;;-144.62;100.00;60556.56;5064015;28;45384;-69
2022/06/09 07:03:46;;;;;;;;;6.67;4.67;;;;;-144.62;100.00;60556.56;5067824;28;45544;-69
2022/06/09 07:06:11;;;;;;;;;7.00;5.67;;;;;-144.62;100.00;60556.56;5062705;28;45552;-69
2022/06/09 07:08:37;;;;;;;;;13.00;8.67;;;;;-144.62;100.00;60556.56;5067429;28;45348;-69
2022/06/09 07:11:04;;;;;;;;;8.00;6.00;;;;;-144.62;100.00;60556.56;5070732;28;45442;-69
2022/06/09 07:13:30;;;;;;;;;7.67;7.00;;;;;-144.62;100.00;60556.56;5062242;27;45683;-69
2022/06/09 07:15:55;;;;;;;;;7.67;7.00;;;;;-144.62;100.00;60556.56;5075716;28;46177;-68
2022/06/09 07:18:20;;;;;;;;;10.00;5.33;;;;;-144.62;100.00;60556.56;5067270;27;45292;-69
2022/06/09 07:20:46;;;;;;;;;9.00;6.33;;;;;-144.62;100.00;60556.56;5075351;27;45239;-69
2022/06/09 07:23:13;;;;;;;;;12.67;6.00;;;;;-144.62;100.00;60556.56;5087482;27;45285;-69
2022/06/09 07:25:38;;;;;;;;;14.67;9.00;;;;;-144.62;100.00;60556.56;5063226;27;46950;-68
2022/06/09 07:28:04;;;;;;;;;9.67;8.33;;;;;-144.62;100.00;60556.56;5076565;28;45443;-69
2022/06/09 07:30:30;;;;;;;;;10.00;9.33;;;;;-144.62;100.00;60556.56;5082427;27;45345;-72
2022/06/09 07:32:56;;;;;;;;;5.67;5.67;;;;;-144.62;100.00;60556.56;5081921;27;45654;-72
2022/06/09 07:35:25;;;;;;;;;5.33;4.33;;;;;-144.62;100.00;60556.56;5063580;28;47110;-70
2022/06/09 07:37:51;;;;;;;;;3.00;2.67;;;;;-144.62;100.00;60556.56;5082207;27;45532;-69
2022/06/09 07:40:16;;;;;;;;;10.67;9.00;;;;;-144.62;100.00;60556.56;5088166;27;45469;-69
2022/06/09 07:42:41;;;;;;;;;10.33;8.33;;;;;-144.62;100.00;60556.56;5087650;27;45306;-69
2022/06/09 07:45:09;;;;;;;;;7.67;7.00;;;;;-144.62;100.00;60556.56;5095420;27;45809;-73
2022/06/09 07:47:35;;;;;;;;;9.00;5.67;;;;;-144.62;100.00;60556.56;5083734;27;45421;-70
2022/06/09 07:50:00;;;;;;;;;12.33;8.00;;;;;-144.62;100.00;60556.56;5096329;27;45310;-70
2022/06/09 07:52:26;;;;;;;;;8.00;6.00;;;;;-144.62;100.00;60556.56;5083786;27;45431;-67
2022/06/09 07:54:51;;;;;;;;;9.33;7.33;;;;;-144.62;100.00;60556.56;5081592;27;46667;-70
2022/06/09 07:57:16;;;;;;;;;5.33;5.33;;;;;-144.62;100.00;60556.56;5085632;27;45477;-70
2022/06/09 07:59:42;;;;;;;;;8.33;6.00;;;;;-144.62;100.00;60556.56;5082048;27;45703;-68
2022/06/09 08:02:07;;;;;;;;;7.33;6.00;;;;;-144.62;100.00;60556.56;5083541;27;45679;-69
2022/06/09 08:04:33;;;;;;;;;12.33;9.33;;;;;-144.62;100.00;60556.56;5062839;27;49934;-69
2022/06/09 08:06:59;;;;;;;;;5.67;5.67;;;;;-144.62;100.00;60556.56;5083102;27;45258;-70
2022/06/09 08:09:24;;;;;;;;;8.33;6.00;;;;;-144.62;100.00;60556.56;5063364;28;45242;-69
2022/06/09 08:11:49;;;;;;;;;5.00;3.67;;;;;-144.62;100.00;60556.56;5070907;27;45303;-68
2022/06/09 08:14:15;;;;;;;;;7.67;6.00;;;;;-144.62;100.00;60556.56;5088473;27;45377;-68
2022/06/09 08:16:41;;;;;;;;;4.67;4.67;;;;;-144.62;100.00;60556.56;5094159;27;45395;-69
2022/06/09 08:19:07;;;;;;;;;6.00;4.67;;;;;-144.62;100.00;60556.56;5084572;27;45291;-70
2022/06/09 08:21:32;;;;;;;;;6.00;6.00;;;;;-144.62;100.00;60556.56;5069344;27;45680;-68
2022/06/09 08:23:58;;;;;;;;;5.33;5.33;;;;;-144.62;100.00;60556.56;5083787;27;45557;-68
2022/06/09 08:26:23;;;;;;;;;9.33;7.00;;;;;-144.62;100.00;60556.56;5067584;27;45568;-68
2022/06/09 08:28:49;;;;;;;;;7.67;5.67;;;;;-144.62;100.00;60556.56;5099029;27;45391;-68
2022/06/09 08:31:15;;;;;;;;;11.00;8.33;;;;;-144.62;100.00;60556.56;5094275;27;45456;-69
2022/06/09 08:33:40;;;;;;;;;8.67;8.00;;;;;-144.62;100.00;60556.56;5084258;27;46394;-68
2022/06/09 08:36:06;;;;;;;;;7.00;6.33;;;;;-144.62;100.00;60556.56;5096750;27;45579;-68
2022/06/09 08:38:32;;;;;;;;;9.33;7.33;;;;;-144.62;100.00;60556.56;5071090;28;45399;-68
2022/06/09 08:41:08;;;;;;;;;12.33;8.33;;;;;-144.62;100.00;60556.56;5076722;27;45631;-68
2022/06/09 08:43:45;;;;;;;;;8.67;7.00;;;;;-144.62;100.00;60556.56;5089673;27;45344;-68
2022/06/09 08:46:18;;;;;;;;;8.33;6.33;;;;;-144.62;100.00;60556.56;5084059;27;45492;-69
2022/06/09 08:48:46;;;;;;;;;8.33;3.33;;;;;-144.62;100.00;60556.56;5084759;27;45330;-69
2022/06/09 08:51:42;;;;;;;;;6.67;6.67;;;;;-144.62;100.00;60556.56;5084648;27;45264;-69
2022/06/09 08:54:23;;;;;;;;;8.00;8.00;;;;;-144.62;100.00;60556.56;5061221;27;45437;-69
2022/06/09 08:56:49;;;;;;;;;6.00;6.00;;;;;-144.62;100.00;60556.56;5080951;27;45561;-69
2022/06/09 08:59:28;;;;;;;;;9.00;6.00;;;;;-144.62;100.00;60556.56;5084972;27;45573;-69
2022/06/09 09:01:58;;;;;;;;;7.67;7.67;;;;;-144.62;100.00;60556.56;5068375;27;45459;-70
2022/06/09 09:04:29;;;;;;;;;8.67;7.33;;;;;-144.62;100.00;60556.56;5086796;27;45208;-69
2022/06/09 09:07:20;;;;;;;;;6.33;6.33;;;;;-144.62;100.00;60556.56;5089511;27;45425;-69
2022/06/09 09:09:47;;;;;;;;;5.33;5.33;;;;;-144.62;100.00;60556.56;5092905;27;45350;-69
2022/06/09 09:12:12;;;;;;;;;3.67;3.67;;;;;-144.62;100.00;60556.56;5086828;27;45453;-69
2022/06/09 09:14:51;;;;;;;;;10.33;7.00;;;;;-144.62;100.00;60556.56;5083044;28;47308;-69
2022/06/09 09:17:37;;;;;;;;;8.67;6.00;;;;;-144.62;100.00;60556.56;5086015;27;45413;-69
2022/06/09 09:20:14;;;;;;;;;7.67;6.33;;;;;-144.62;100.00;60556.56;5083967;27;45502;-69
2022/06/09 09:23:04;;;;;;;;;7.33;6.00;;;;;-144.62;100.00;60556.56;5086169;27;45545;-69
2022/06/09 09:25:37;;;;;;;;;7.00;4.00;;;;;-144.62;100.00;60556.56;5082897;27;45456;-70
2022/06/09 09:28:24;;;;;;;;;8.33;7.67;;;;;-144.62;100.00;60556.56;5084903;27;45425;-70
2022/06/09 09:31:04;;;;;;;;;7.00;5.67;;;;;-144.62;100.00;60556.56;5085169;27;45356;-69
2022/06/09 09:33:30;;;;;;;;;6.67;6.00;;;;;-144.62;100.00;60556.56;5087449;27;45325;-69
2022/06/09 09:36:03;;;;;;;;;8.33;5.00;;;;;-144.62;100.00;60556.56;5083628;27;46299;-69
2022/06/09 09:38:44;;;;;;;;;5.00;5.00;;;;;-144.62;100.00;60556.56;5071871;28;45260;-69
2022/06/09 09:41:33;;;;;;;;;5.33;5.33;;;;;-144.62;100.00;60556.56;5090528;27;45524;-68
2022/06/09 09:44:00;;;;;;;;;8.67;5.00;;;;;-144.62;100.00;60556.56;5081132;27;45354;-69
2022/06/09 09:46:32;;;;;;;;;5.33;5.33;;;;;-144.62;100.00;60556.56;5097040;27;45575;-70
2022/06/09 09:49:01;;;;;;;;;9.33;5.00;;;;;-144.62;100.00;60556.56;5090629;27;45322;-71
2022/06/09 09:51:34;;;;;;;;;4.67;4.00;;;;;-144.62;100.00;60556.56;5085748;27;45164;-70
2022/06/09 09:54:07;;;;;;;;;5.00;5.00;;;;;-144.62;100.00;60556.56;5085409;27;45268;-70
2022/06/09 09:56:35;;;;;;;;;8.00;6.00;;;;;-144.62;100.00;60556.56;5086325;27;46185;-70
2022/06/09 09:59:03;;;;;;;;;4.00;2.00;;;;;-144.62;100.00;60556.56;5093025;27;45452;-70
2022/06/09 10:08:35;;;;;;;;;7.67;4.67;;;;;-144.62;100.00;60556.56;5086189;27;45494;-70
2022/06/09 10:09:59;;;;;;;;;6.67;4.00;;;;;-144.62;100.00;60556.56;5085559;27;45389;-70
2022/06/09 10:12:32;;;;;;;;;4.00;3.00;;;;;-144.62;100.00;60556.56;5093809;27;45434;-70
2022/06/09 10:14:57;;;;;;;;;3.00;3.00;;;;;-144.62;100.00;60556.56;5101037;27;45401;-70
2022/06/09 10:17:38;;;;;;;;;6.00;3.33;;;;;-144.62;100.00;60556.56;5074305;27;46305;-70
2022/06/09 10:20:15;;;;;;;;;4.00;4.00;;;;;-144.62;100.00;60556.56;5081154;28;45410;-69
2022/06/09 10:22:54;;;;;;;;;5.67;4.00;;;;;-144.62;100.00;60556.56;5065238;28;45357;-69
2022/06/09 10:25:28;;;;;;;;;9.33;5.00;;;;;-144.62;100.00;60556.56;5064433;28;45339;-68
2022/06/09 10:28:05;;;;;;;;;3.00;3.00;;;;;-144.62;100.00;60556.56;5077941;28;47615;-66
2022/06/09 10:30:40;;;;;;;;;5.00;4.67;;;;;-144.62;100.00;60556.56;5067104;28;45380;-69
2022/06/09 10:33:36;;;;;;;;;4.00;3.00;;;;;-144.62;100.00;60556.56;5069221;27;45222;-69
2022/06/09 10:36:21;;;;;;;;;7.00;4.67;;;;;-144.62;100.00;60556.56;5064400;28;45614;-69
2022/06/09 10:38:52;;;;;;;;;5.00;3.00;;;;;-144.62;100.00;60556.56;5062961;28;47332;-70
2022/06/09 10:41:32;;;;;;;;;4.00;3.00;;;;;-144.62;100.00;60556.56;5065197;28;45309;-69
2022/06/09 10:44:05;;;;;;;;;3.00;3.00;;;;;-144.62;100.00;60556.56;5063021;28;45373;-70
2022/06/09 10:46:30;;;;;;;;;10.00;6.00;;;;;-144.62;100.00;60556.56;5078339;27;45388;-69
2022/06/09 10:57:39;;;;;;;;;4.00;2.00;;;;;-144.62;100.00;60556.56;5072164;28;45318;-70
2022/06/09 11:00:17;;;;;;;;;5.00;4.67;;;;;-144.62;100.00;60556.56;5077928;27;46388;-68
2022/06/09 11:02:49;;;;;;;;;4.00;4.00;;;;;-144.62;100.00;60556.56;5074798;28;45679;-70
2022/06/09 11:05:17;;;;;;;;;5.00;3.67;;;;;-144.62;100.00;60556.56;5068240;28;45231;-70
2022/06/09 11:08:09;;;;;;;;;7.33;6.33;;;;;-144.62;100.00;60556.56;5069530;27;45545;-66
2022/06/09 11:10:59;;;;;;;;;4.67;4.00;;;;;-144.62;100.00;60556.56;5053911;28;46406;-67
2022/06/09 11:13:39;;;;;;;;;3.00;3.00;;;;;-144.62;100.00;60556.56;5066544;28;45271;-71
2022/06/09 11:16:46;;;;;;;;;4.33;4.33;;;;;-144.62;100.00;60556.56;5073825;27;45285;-70
2022/06/09 11:19:50;;;;;;;;;6.00;4.67;;;;;-144.62;100.00;60556.56;5064274;28;45405;-70
2022/06/09 11:22:29;;;;;;;;;5.67;3.00;;;;;-144.62;100.00;60556.56;5074760;28;48506;-70
2022/06/09 11:25:21;;;;;;;;;11.00;9.00;;;;;-144.62;100.00;60556.56;5082485;28;45416;-70
2022/06/09 11:28:10;;;;;;;;;3.67;2.67;;;;;-144.62;100.00;60556.56;5075277;27;45486;-70
2022/06/09 11:31:07;;;;;;;;;18.67;13.67;;;;;-144.62;100.00;60556.56;5078731;27;45447;-70
2022/06/09 11:33:33;;;;;;;;;3.33;3.33;;;;;-144.62;100.00;60556.56;5004452;28;46290;-70
2022/06/09 11:36:08;;;;;;;;;4.00;4.00;;;;;-144.62;100.00;60556.56;5087803;27;45383;-69
2022/06/09 11:39:11;;;;;;;;;7.00;3.00;;;;;-144.62;100.00;60556.56;5070198;27;45551;-70
2022/06/09 11:42:03;;;;;;;;;4.33;4.33;;;;;-144.62;100.00;60556.56;5083512;27;45704;-69